sensor_id;sensor_type;location;lat;lon;timestamp;pressure;altitude;pressure_sealevel;temperature;humidity
52983;BME280;48698;45.736;13.926;2023-05-09T00:00:15;97679.41;;;11.66;100.00
52983;BME280;48698;45.736;13.926;2023-05-09T00:05:19;97824.44;;;12.54;100.00
52983;BME280;48698;45.736;13.926;2023-05-09T00:10:23;97879.13;;;12.92;100.00
52983;BME280;48698;45.736;13.926;2023-05-09T00:15:27;97816.19;;;12.43;100.00
52983;BME280;48698;45.736;13.926;2023-05-09T00:20:31;97853.31;;;12.93;100.00
52983;BME280;48698;45.736;13.926;2023-05-09T00:25:46;97795.22;;;12.37;100.00
52983;BME280;48698;45.736;13.926;2023-05-09T00:30:49;97751.41;;;12.27;100.00
52983;BME280;48698;45.736;13.926;2023-05-09T00:35:53;97746.78;;;12.15;100.00
52983;BME280;48698;45.736;13.926;2023-05-09T00:40:58;97722.31;;;12.08;100.00
52983;BME280;48698;45.736;13.926;2023-05-09T00:46:01;97788.72;;;12.42;100.00
52983;BME280;48698;45.736;13.926;2023-05-09T00:51:06;97840.19;;;12.59;100.00
52983;BME280;48698;45.736;13.926;2023-05-09T00:56:10;97858.81;;;12.90;100.00
52983;BME280;48698;45.736;13.926;2023-05-09T01:01:14;97797.81;;;12.54;100.00
52983;BME280;48698;45.736;13.926;2023-05-09T01:06:28;97817.91;;;12.75;100.00
52983;BME280;48698;45.736;13.926;2023-05-09T01:17:18;97796.97;;;12.69;100.00
52983;BME280;48698;45.736;13.926;2023-05-09T01:22:29;97850.03;;;13.04;100.00
52983;BME280;48698;45.736;13.926;2023-05-09T01:27:41;97625.03;;;11.71;100.00
52983;BME280;48698;45.736;13.926;2023-05-09T01:32:50;97794.19;;;12.71;100.00
52983;BME280;48698;45.736;13.926;2023-05-09T01:37:53;97796.41;;;12.63;100.00
52983;BME280;48698;45.736;13.926;2023-05-09T01:43:00;97576.78;;;11.46;100.00
52983;BME280;48698;45.736;13.926;2023-05-09T01:48:05;97781.28;;;12.79;100.00
52983;BME280;48698;45.736;13.926;2023-05-09T01:53:10;97791.44;;;12.72;100.00
52983;BME280;48698;45.736;13.926;2023-05-09T01:58:14;97816.19;;;12.74;100.00
52983;BME280;48698;45.736;13.926;2023-05-09T02:03:19;97614.94;;;11.61;100.00
52983;BME280;48698;45.736;13.926;2023-05-09T02:08:23;97816.91;;;12.62;100.00
52983;BME280;48698;45.736;13.926;2023-05-09T02:13:26;97657.44;;;11.62;100.00
52983;BME280;48698;45.736;13.926;2023-05-09T02:18:39;97812.06;;;12.53;100.00
52983;BME280;48698;45.736;13.926;2023-05-09T02:23:43;97749.28;;;12.18;100.00
52983;BME280;48698;45.736;13.926;2023-05-09T02:28:46;97841.06;;;12.59;100.00
52983;BME280;48698;45.736;13.926;2023-05-09T02:33:49;97811.38;;;12.34;100.00
52983;BME280;48698;45.736;13.926;2023-05-09T02:38:54;97555.97;;;10.90;100.00
52983;BME280;48698;45.736;13.926;2023-05-09T02:43:57;97833.66;;;12.64;100.00
52983;BME280;48698;45.736;13.926;2023-05-09T02:48:59;97801.69;;;12.49;100.00
52983;BME280;48698;45.736;13.926;2023-05-09T02:54:02;97526.34;;;10.80;100.00
52983;BME280;48698;45.736;13.926;2023-05-09T02:59:05;97682.69;;;11.86;100.00
52983;BME280;48698;45.736;13.926;2023-05-09T03:04:19;97657.81;;;11.72;100.00
52983;BME280;48698;45.736;13.926;2023-05-09T03:09:21;97793.06;;;12.43;100.00
52983;BME280;48698;45.736;13.926;2023-05-09T03:14:35;97704.03;;;12.02;100.00
52983;BME280;48698;45.736;13.926;2023-05-09T03:19:37;97775.38;;;12.11;100.00
52983;BME280;48698;45.736;13.926;2023-05-09T03:24:40;97576.84;;;11.13;100.00
52983;BME280;48698;45.736;13.926;2023-05-09T03:29:43;97848.16;;;12.74;100.00
52983;BME280;48698;45.736;13.926;2023-05-09T03:34:56;97856.16;;;12.74;100.00
52983;BME280;48698;45.736;13.926;2023-05-09T03:39:58;97666.38;;;11.77;100.00
52983;BME280;48698;45.736;13.926;2023-05-09T03:45:01;97846.03;;;12.65;100.00
52983;BME280;48698;45.736;13.926;2023-05-09T03:50:04;97770.50;;;12.19;100.00
52983;BME280;48698;45.736;13.926;2023-05-09T03:55:08;97647.31;;;11.53;100.00
52983;BME280;48698;45.736;13.926;2023-05-09T04:00:11;97561.81;;;10.97;100.00
52983;BME280;48698;45.736;13.926;2023-05-09T04:05:14;97862.78;;;12.67;100.00
52983;BME280;48698;45.736;13.926;2023-05-09T04:10:18;97871.63;;;12.52;100.00
52983;BME280;48698;45.736;13.926;2023-05-09T04:15:24;97713.41;;;11.43;100.00
52983;BME280;48698;45.736;13.926;2023-05-09T04:20:28;97725.47;;;11.33;100.00
52983;BME280;48698;45.736;13.926;2023-05-09T04:25:40;97766.06;;;11.37;100.00
52983;BME280;48698;45.736;13.926;2023-05-09T04:30:44;97840.75;;;11.50;100.00
52983;BME280;48698;45.736;13.926;2023-05-09T04:35:47;97727.00;;;10.87;100.00
52983;BME280;48698;45.736;13.926;2023-05-09T04:40:50;97846.50;;;11.76;100.00
52983;BME280;48698;45.736;13.926;2023-05-09T04:45:53;97849.75;;;11.81;100.00
52983;BME280;48698;45.736;13.926;2023-05-09T04:50:55;97658.25;;;10.64;100.00
52983;BME280;48698;45.736;13.926;2023-05-09T04:55:58;97632.34;;;10.52;100.00
52983;BME280;48698;45.736;13.926;2023-05-09T05:01:01;97867.69;;;12.11;100.00
52983;BME280;48698;45.736;13.926;2023-05-09T05:06:05;97860.81;;;12.07;100.00
52983;BME280;48698;45.736;13.926;2023-05-09T05:11:08;97746.44;;;11.39;100.00
52983;BME280;48698;45.736;13.926;2023-05-09T05:16:15;97776.03;;;11.66;100.00
52983;BME280;48698;45.736;13.926;2023-05-09T05:21:18;97793.09;;;11.79;100.00
52983;BME280;48698;45.736;13.926;2023-05-09T05:26:21;97805.03;;;11.88;100.00
52983;BME280;48698;45.736;13.926;2023-05-09T05:31:24;97735.13;;;11.19;100.00
52983;BME280;48698;45.736;13.926;2023-05-09T05:36:27;97774.84;;;11.39;100.00
52983;BME280;48698;45.736;13.926;2023-05-09T05:41:30;97670.13;;;10.92;100.00
52983;BME280;48698;45.736;13.926;2023-05-09T05:46:33;97772.28;;;11.70;100.00
52983;BME280;48698;45.736;13.926;2023-05-09T05:51:36;97884.19;;;12.17;100.00
52983;BME280;48698;45.736;13.926;2023-05-09T05:56:39;97889.31;;;12.53;100.00
52983;BME280;48698;45.736;13.926;2023-05-09T06:01:42;97627.28;;;10.98;100.00
52983;BME280;48698;45.736;13.926;2023-05-09T06:06:47;97894.56;;;12.70;100.00
52983;BME280;48698;45.736;13.926;2023-05-09T06:11:49;97887.38;;;12.72;100.00
52983;BME280;48698;45.736;13.926;2023-05-09T06:16:53;97739.22;;;11.91;100.00
52983;BME280;48698;45.736;13.926;2023-05-09T06:21:56;97774.00;;;12.20;100.00
52983;BME280;48698;45.736;13.926;2023-05-09T06:26:59;97835.78;;;12.73;100.00
52983;BME280;48698;45.736;13.926;2023-05-09T06:32:02;97873.44;;;12.99;100.00
52983;BME280;48698;45.736;13.926;2023-05-09T06:37:05;97867.69;;;13.22;100.00
52983;BME280;48698;45.736;13.926;2023-05-09T06:42:09;97780.97;;;12.69;100.00
52983;BME280;48698;45.736;13.926;2023-05-09T06:47:11;97716.88;;;12.41;100.00
52983;BME280;48698;45.736;13.926;2023-05-09T06:52:14;97611.81;;;11.85;100.00
52983;BME280;48698;45.736;13.926;2023-05-09T06:57:17;97761.72;;;12.94;100.00
52983;BME280;48698;45.736;13.926;2023-05-09T07:02:20;97580.25;;;11.79;100.00
52983;BME280;48698;45.736;13.926;2023-05-09T07:07:23;97635.72;;;12.62;100.00
52983;BME280;48698;45.736;13.926;2023-05-09T07:12:25;97842.19;;;13.90;100.00
52983;BME280;48698;45.736;13.926;2023-05-09T07:17:28;97594.97;;;12.46;100.00
52983;BME280;48698;45.736;13.926;2023-05-09T07:22:31;97670.41;;;13.20;100.00
52983;BME280;48698;45.736;13.926;2023-05-09T07:27:37;97864.38;;;14.34;100.00
52983;BME280;48698;45.736;13.926;2023-05-09T07:32:40;97863.53;;;14.34;100.00
52983;BME280;48698;45.736;13.926;2023-05-09T07:37:43;97858.84;;;14.52;100.00
52983;BME280;48698;45.736;13.926;2023-05-09T07:42:56;97732.66;;;13.63;100.00
52983;BME280;48698;45.736;13.926;2023-05-09T07:47:58;97760.19;;;13.92;100.00
52983;BME280;48698;45.736;13.926;2023-05-09T07:53:01;97840.41;;;14.61;100.00
52983;BME280;48698;45.736;13.926;2023-05-09T07:58:04;97862.66;;;15.42;100.00
52983;BME280;48698;45.736;13.926;2023-05-09T08:03:07;97790.00;;;14.55;100.00
52983;BME280;48698;45.736;13.926;2023-05-09T08:08:10;97701.56;;;14.05;100.00
52983;BME280;48698;45.736;13.926;2023-05-09T08:13:23;97785.91;;;14.90;100.00
52983;BME280;48698;45.736;13.926;2023-05-09T08:18:25;97849.56;;;15.25;100.00
52983;BME280;48698;45.736;13.926;2023-05-09T08:23:28;97700.81;;;14.70;100.00
52983;BME280;48698;45.736;13.926;2023-05-09T08:28:31;97702.56;;;14.84;100.00
52983;BME280;48698;45.736;13.926;2023-05-09T08:33:38;97725.03;;;14.81;100.00
52983;BME280;48698;45.736;13.926;2023-05-09T08:38:42;97857.72;;;16.51;100.00
52983;BME280;48698;45.736;13.926;2023-05-09T08:43:47;97773.25;;;15.32;100.00
52983;BME280;48698;45.736;13.926;2023-05-09T08:48:50;97635.31;;;15.02;100.00
52983;BME280;48698;45.736;13.926;2023-05-09T08:53:54;97807.78;;;16.50;100.00
52983;BME280;48698;45.736;13.926;2023-05-09T08:58:57;97601.16;;;15.44;100.00
52983;BME280;48698;45.736;13.926;2023-05-09T09:04:02;97803.25;;;17.23;100.00
52983;BME280;48698;45.736;13.926;2023-05-09T09:09:07;97872.00;;;18.64;100.00
52983;BME280;48698;45.736;13.926;2023-05-09T09:14:15;97652.41;;;17.64;100.00
52983;BME280;48698;45.736;13.926;2023-05-09T09:19:26;97863.78;;;18.54;100.00
52983;BME280;48698;45.736;13.926;2023-05-09T09:24:33;97875.78;;;17.58;100.00
52983;BME280;48698;45.736;13.926;2023-05-09T09:29:35;97551.78;;;15.73;100.00
52983;BME280;48698;45.736;13.926;2023-05-09T09:34:50;97658.88;;;16.70;100.00
52983;BME280;48698;45.736;13.926;2023-05-09T09:39:53;97833.44;;;18.30;100.00
52983;BME280;48698;45.736;13.926;2023-05-09T09:45:09;97753.28;;;17.90;100.00
52983;BME280;48698;45.736;13.926;2023-05-09T09:50:17;97841.03;;;18.36;100.00
52983;BME280;48698;45.736;13.926;2023-05-09T09:55:21;97852.19;;;18.53;100.00
52983;BME280;48698;45.736;13.926;2023-05-09T10:00:25;97831.81;;;17.83;100.00
52983;BME280;48698;45.736;13.926;2023-05-09T10:05:30;97850.94;;;17.54;100.00
52983;BME280;48698;45.736;13.926;2023-05-09T10:10:42;97800.50;;;16.88;100.00
52983;BME280;48698;45.736;13.926;2023-05-09T10:15:45;97800.03;;;17.18;100.00
52983;BME280;48698;45.736;13.926;2023-05-09T10:20:56;97763.38;;;17.30;100.00
52983;BME280;48698;45.736;13.926;2023-05-09T10:31:24;97834.16;;;17.98;100.00
52983;BME280;48698;45.736;13.926;2023-05-09T10:36:29;97829.69;;;18.32;100.00
52983;BME280;48698;45.736;13.926;2023-05-09T10:41:32;97770.38;;;18.00;100.00
52983;BME280;48698;45.736;13.926;2023-05-09T10:46:35;97762.00;;;17.24;100.00
52983;BME280;48698;45.736;13.926;2023-05-09T10:51:48;97783.25;;;18.19;100.00
52983;BME280;48698;45.736;13.926;2023-05-09T10:56:52;97771.59;;;18.63;100.00
52983;BME280;48698;45.736;13.926;2023-05-09T11:02:13;97729.13;;;18.13;100.00
52983;BME280;48698;45.736;13.926;2023-05-09T11:07:22;97773.41;;;18.74;100.00
52983;BME280;48698;45.736;13.926;2023-05-09T11:12:26;97679.97;;;18.22;100.00
52983;BME280;48698;45.736;13.926;2023-05-09T11:17:29;97760.13;;;18.50;100.00
52983;BME280;48698;45.736;13.926;2023-05-09T11:22:43;97752.59;;;18.87;100.00
52983;BME280;48698;45.736;13.926;2023-05-09T11:27:48;97481.78;;;17.04;100.00
52983;BME280;48698;45.736;13.926;2023-05-09T11:32:53;97743.03;;;18.51;100.00
52983;BME280;48698;45.736;13.926;2023-05-09T11:38:04;97771.75;;;18.50;100.00
52983;BME280;48698;45.736;13.926;2023-05-09T11:43:07;97759.06;;;18.52;99.99
52983;BME280;48698;45.736;13.926;2023-05-09T11:48:10;97723.34;;;18.28;94.84
52983;BME280;48698;45.736;13.926;2023-05-09T11:53:13;97632.56;;;18.21;94.48
52983;BME280;48698;45.736;13.926;2023-05-09T11:58:16;97530.47;;;17.55;94.52
52983;BME280;48698;45.736;13.926;2023-05-09T12:03:18;97575.06;;;18.55;94.94
52983;BME280;48698;45.736;13.926;2023-05-09T12:08:23;97537.28;;;17.82;84.61
52983;BME280;48698;45.736;13.926;2023-05-09T12:13:43;97505.91;;;17.82;85.16
52983;BME280;48698;45.736;13.926;2023-05-09T12:18:49;97734.34;;;19.01;79.42
52983;BME280;48698;45.736;13.926;2023-05-09T12:23:54;97697.16;;;18.64;78.50
52983;BME280;48698;45.736;13.926;2023-05-09T12:28:57;97724.00;;;19.38;78.91
52983;BME280;48698;45.736;13.926;2023-05-09T12:34:00;97718.97;;;19.45;77.16
52983;BME280;48698;45.736;13.926;2023-05-09T12:39:13;97672.84;;;19.38;76.95
52983;BME280;48698;45.736;13.926;2023-05-09T12:44:23;97656.91;;;18.94;78.80
52983;BME280;48698;45.736;13.926;2023-05-09T12:49:30;97705.53;;;19.34;74.84
52983;BME280;48698;45.736;13.926;2023-05-09T12:54:45;97640.59;;;19.27;77.88
52983;BME280;48698;45.736;13.926;2023-05-09T12:59:49;97696.91;;;19.51;79.49
52983;BME280;48698;45.736;13.926;2023-05-09T13:10:19;97591.44;;;18.41;77.50
52983;BME280;48698;45.736;13.926;2023-05-09T13:15:25;97631.25;;;19.31;82.04
52983;BME280;48698;45.736;13.926;2023-05-09T13:20:28;97649.06;;;19.64;76.98
52983;BME280;48698;45.736;13.926;2023-05-09T13:25:31;97674.94;;;19.35;77.16
52983;BME280;48698;45.736;13.926;2023-05-09T13:30:34;97437.75;;;18.15;78.64
52983;BME280;48698;45.736;13.926;2023-05-09T13:35:37;97565.25;;;19.16;78.08
52983;BME280;48698;45.736;13.926;2023-05-09T13:40:45;97610.78;;;18.98;74.11
52983;BME280;48698;45.736;13.926;2023-05-09T13:45:47;97651.09;;;19.09;73.39
52983;BME280;48698;45.736;13.926;2023-05-09T13:50:50;97649.53;;;19.28;73.81
52983;BME280;48698;45.736;13.926;2023-05-09T13:55:54;97408.31;;;17.93;72.50
52983;BME280;48698;45.736;13.926;2023-05-09T14:00:56;97635.81;;;19.82;70.28
52983;BME280;48698;45.736;13.926;2023-05-09T14:06:02;97592.75;;;19.61;69.88
52983;BME280;48698;45.736;13.926;2023-05-09T14:11:07;97433.84;;;18.49;67.46
52983;BME280;48698;45.736;13.926;2023-05-09T14:16:10;97558.88;;;19.38;67.28
52983;BME280;48698;45.736;13.926;2023-05-09T14:21:13;97633.28;;;19.59;67.04
52983;BME280;48698;45.736;13.926;2023-05-09T14:26:17;97618.50;;;19.33;66.94
52983;BME280;48698;45.736;13.926;2023-05-09T14:31:20;97523.94;;;19.27;69.87
52983;BME280;48698;45.736;13.926;2023-05-09T14:36:23;97558.56;;;19.92;68.95
52983;BME280;48698;45.736;13.926;2023-05-09T14:41:26;97623.06;;;20.33;70.53
52983;BME280;48698;45.736;13.926;2023-05-09T14:46:28;97589.47;;;19.97;66.44
52983;BME280;48698;45.736;13.926;2023-05-09T14:51:31;97583.72;;;20.21;67.05
52983;BME280;48698;45.736;13.926;2023-05-09T14:56:34;97609.19;;;19.98;66.46
52983;BME280;48698;45.736;13.926;2023-05-09T15:01:37;97495.78;;;19.31;66.60
52983;BME280;48698;45.736;13.926;2023-05-09T15:06:40;97591.53;;;19.44;67.33
52983;BME280;48698;45.736;13.926;2023-05-09T15:11:42;97471.47;;;18.81;68.85
52983;BME280;48698;45.736;13.926;2023-05-09T15:16:49;97455.25;;;18.92;68.88
52983;BME280;48698;45.736;13.926;2023-05-09T15:21:53;97482.03;;;19.34;67.75
52983;BME280;48698;45.736;13.926;2023-05-09T15:26:56;97429.97;;;19.14;67.00
52983;BME280;48698;45.736;13.926;2023-05-09T15:31:59;97591.84;;;20.31;68.02
52983;BME280;48698;45.736;13.926;2023-05-09T15:37:02;97390.44;;;18.75;67.45
52983;BME280;48698;45.736;13.926;2023-05-09T15:42:16;97561.66;;;19.87;70.44
52983;BME280;48698;45.736;13.926;2023-05-09T15:47:28;97565.84;;;19.71;69.38
52983;BME280;48698;45.736;13.926;2023-05-09T15:52:32;97294.78;;;18.00;70.37
52983;BME280;48698;45.736;13.926;2023-05-09T15:57:44;97559.19;;;19.65;71.01
52983;BME280;48698;45.736;13.926;2023-05-09T16:02:49;97574.81;;;19.81;71.05
52983;BME280;48698;45.736;13.926;2023-05-09T16:07:52;97446.44;;;18.90;69.34
52983;BME280;48698;45.736;13.926;2023-05-09T16:12:55;97280.63;;;17.98;71.26
52983;BME280;48698;45.736;13.926;2023-05-09T16:17:58;97433.41;;;19.26;71.21
52983;BME280;48698;45.736;13.926;2023-05-09T16:23:00;97541.81;;;19.28;73.07
52983;BME280;48698;45.736;13.926;2023-05-09T16:28:06;97538.38;;;19.46;72.81
52983;BME280;48698;45.736;13.926;2023-05-09T16:33:17;97566.50;;;19.33;72.41
52983;BME280;48698;45.736;13.926;2023-05-09T16:38:20;97570.47;;;19.59;72.14
52983;BME280;48698;45.736;13.926;2023-05-09T16:43:22;97562.31;;;19.80;74.08
52983;BME280;48698;45.736;13.926;2023-05-09T16:48:25;97495.38;;;19.35;73.67
52983;BME280;48698;45.736;13.926;2023-05-09T16:53:28;97433.22;;;18.57;74.13
52983;BME280;48698;45.736;13.926;2023-05-09T16:58:40;97472.81;;;18.96;74.38
52983;BME280;48698;45.736;13.926;2023-05-09T17:03:46;97318.41;;;17.76;72.82
52983;BME280;48698;45.736;13.926;2023-05-09T17:08:49;97504.47;;;18.83;74.22
52983;BME280;48698;45.736;13.926;2023-05-09T17:13:52;97435.88;;;18.36;73.59
52983;BME280;48698;45.736;13.926;2023-05-09T17:18:55;97429.84;;;18.55;73.47
52983;BME280;48698;45.736;13.926;2023-05-09T17:23:59;97295.06;;;17.97;71.12
52983;BME280;48698;45.736;13.926;2023-05-09T17:29:04;97537.22;;;19.79;71.54
52983;BME280;48698;45.736;13.926;2023-05-09T17:34:16;97296.13;;;17.85;72.15
52983;BME280;48698;45.736;13.926;2023-05-09T17:39:19;97554.53;;;19.26;73.49
52983;BME280;48698;45.736;13.926;2023-05-09T17:44:22;97384.81;;;17.20;75.20
52983;BME280;48698;45.736;13.926;2023-05-09T17:49:29;97559.88;;;17.46;79.51
52983;BME280;48698;45.736;13.926;2023-05-09T17:54:31;97569.50;;;17.48;82.35
52983;BME280;48698;45.736;13.926;2023-05-09T17:59:34;97562.53;;;17.24;84.99
52983;BME280;48698;45.736;13.926;2023-05-09T18:04:41;97569.06;;;16.75;89.96
52983;BME280;48698;45.736;13.926;2023-05-09T18:09:56;97552.38;;;16.48;100.00
52983;BME280;48698;45.736;13.926;2023-05-09T18:15:00;97557.94;;;16.10;100.00
52983;BME280;48698;45.736;13.926;2023-05-09T18:20:04;97504.22;;;15.28;100.00
52983;BME280;48698;45.736;13.926;2023-05-09T18:25:08;97473.22;;;15.13;100.00
52983;BME280;48698;45.736;13.926;2023-05-09T18:30:11;97290.66;;;13.62;100.00
52983;BME280;48698;45.736;13.926;2023-05-09T18:35:14;97560.84;;;14.96;100.00
52983;BME280;48698;45.736;13.926;2023-05-09T18:40:17;97575.09;;;14.97;100.00
52983;BME280;48698;45.736;13.926;2023-05-09T18:45:20;97365.72;;;13.95;100.00
52983;BME280;48698;45.736;13.926;2023-05-09T18:50:22;97529.53;;;14.73;100.00
52983;BME280;48698;45.736;13.926;2023-05-09T18:55:25;97443.28;;;14.07;100.00
52983;BME280;48698;45.736;13.926;2023-05-09T19:00:28;97582.53;;;14.67;100.00
52983;BME280;48698;45.736;13.926;2023-05-09T19:05:30;97574.59;;;14.53;100.00
52983;BME280;48698;45.736;13.926;2023-05-09T19:10:35;97579.41;;;14.21;100.00
52983;BME280;48698;45.736;13.926;2023-05-09T19:15:49;97469.91;;;13.42;100.00
52983;BME280;48698;45.736;13.926;2023-05-09T19:20:52;97463.72;;;13.27;100.00
52983;BME280;48698;45.736;13.926;2023-05-09T19:26:04;97525.25;;;13.38;100.00
52983;BME280;48698;45.736;13.926;2023-05-09T19:31:23;97557.81;;;13.01;100.00
52983;BME280;48698;45.736;13.926;2023-05-09T19:36:26;97543.00;;;13.11;100.00
52983;BME280;48698;45.736;13.926;2023-05-09T19:41:29;97505.09;;;12.92;100.00
52983;BME280;48698;45.736;13.926;2023-05-09T19:46:35;97248.97;;;11.58;100.00
52983;BME280;48698;45.736;13.926;2023-05-09T19:51:49;97263.56;;;11.51;100.00
52983;BME280;48698;45.736;13.926;2023-05-09T19:56:52;97480.31;;;13.04;100.00
52983;BME280;48698;45.736;13.926;2023-05-09T20:01:58;97556.00;;;13.44;100.00
52983;BME280;48698;45.736;13.926;2023-05-09T20:07:01;97566.69;;;13.44;100.00
52983;BME280;48698;45.736;13.926;2023-05-09T20:12:04;97344.78;;;12.01;100.00
52983;BME280;48698;45.736;13.926;2023-05-09T20:17:07;97388.72;;;12.50;100.00
52983;BME280;48698;45.736;13.926;2023-05-09T20:22:09;97554.22;;;13.16;100.00
52983;BME280;48698;45.736;13.926;2023-05-09T20:27:12;97534.69;;;13.16;100.00
52983;BME280;48698;45.736;13.926;2023-05-09T20:32:18;97418.97;;;12.35;100.00
52983;BME280;48698;45.736;13.926;2023-05-09T20:37:21;97533.47;;;13.21;100.00
52983;BME280;48698;45.736;13.926;2023-05-09T20:42:23;97513.44;;;13.00;100.00
52983;BME280;48698;45.736;13.926;2023-05-09T20:47:27;97279.94;;;11.59;100.00
52983;BME280;48698;45.736;13.926;2023-05-09T20:52:29;97519.34;;;13.05;100.00
52983;BME280;48698;45.736;13.926;2023-05-09T20:57:32;97336.06;;;11.99;100.00
52983;BME280;48698;45.736;13.926;2023-05-09T21:02:35;97450.34;;;12.44;100.00
52983;BME280;48698;45.736;13.926;2023-05-09T21:07:37;97182.78;;;10.96;100.00
52983;BME280;48698;45.736;13.926;2023-05-09T21:12:40;97510.63;;;12.89;100.00
52983;BME280;48698;45.736;13.926;2023-05-09T21:17:43;97409.66;;;12.28;100.00
52983;BME280;48698;45.736;13.926;2023-05-09T21:22:46;97341.06;;;11.75;100.00
52983;BME280;48698;45.736;13.926;2023-05-09T21:27:48;97435.03;;;12.48;100.00
52983;BME280;48698;45.736;13.926;2023-05-09T21:32:51;97244.53;;;11.15;100.00
52983;BME280;48698;45.736;13.926;2023-05-09T21:37:54;97221.34;;;11.03;100.00
52983;BME280;48698;45.736;13.926;2023-05-09T21:42:57;97447.00;;;12.26;100.00
52983;BME280;48698;45.736;13.926;2023-05-09T21:48:00;97441.41;;;12.31;100.00
52983;BME280;48698;45.736;13.926;2023-05-09T21:53:03;97400.50;;;12.04;100.00
52983;BME280;48698;45.736;13.926;2023-05-09T21:58:06;97398.69;;;12.04;100.00
52983;BME280;48698;45.736;13.926;2023-05-09T22:03:09;97487.00;;;12.55;100.00
52983;BME280;48698;45.736;13.926;2023-05-09T22:08:12;97388.78;;;11.92;100.00
52983;BME280;48698;45.736;13.926;2023-05-09T22:13:15;97383.19;;;11.82;100.00
52983;BME280;48698;45.736;13.926;2023-05-09T22:18:18;97192.81;;;10.76;100.00
52983;BME280;48698;45.736;13.926;2023-05-09T22:23:21;97317.31;;;11.42;100.00
52983;BME280;48698;45.736;13.926;2023-05-09T22:28:33;97471.63;;;12.30;100.00
52983;BME280;48698;45.736;13.926;2023-05-09T22:33:44;97419.31;;;12.01;100.00
52983;BME280;48698;45.736;13.926;2023-05-09T22:38:46;97140.25;;;10.06;100.00
52983;BME280;48698;45.736;13.926;2023-05-09T22:43:49;97431.91;;;12.13;100.00
52983;BME280;48698;45.736;13.926;2023-05-09T22:48:58;97465.38;;;12.31;100.00
52983;BME280;48698;45.736;13.926;2023-05-09T22:54:01;97450.75;;;12.38;100.00
52983;BME280;48698;45.736;13.926;2023-05-09T22:59:05;97356.50;;;11.68;100.00
52983;BME280;48698;45.736;13.926;2023-05-09T23:04:07;97417.63;;;12.00;100.00
52983;BME280;48698;45.736;13.926;2023-05-09T23:09:10;97401.91;;;11.95;100.00
52983;BME280;48698;45.736;13.926;2023-05-09T23:14:13;97353.63;;;11.27;100.00
52983;BME280;48698;45.736;13.926;2023-05-09T23:19:16;97322.22;;;11.34;100.00
52983;BME280;48698;45.736;13.926;2023-05-09T23:24:18;97176.56;;;10.37;100.00
52983;BME280;48698;45.736;13.926;2023-05-09T23:29:21;97138.66;;;10.19;100.00
52983;BME280;48698;45.736;13.926;2023-05-09T23:34:27;97100.66;;;10.03;100.00
52983;BME280;48698;45.736;13.926;2023-05-09T23:39:30;97157.88;;;10.38;100.00
52983;BME280;48698;45.736;13.926;2023-05-09T23:44:33;97112.06;;;10.35;100.00
52983;BME280;48698;45.736;13.926;2023-05-09T23:49:35;97183.97;;;10.76;100.00
52983;BME280;48698;45.736;13.926;2023-05-09T23:54:38;97181.59;;;10.71;100.00
52983;BME280;48698;45.736;13.926;2023-05-09T23:59:41;97072.03;;;10.08;100.00
